Latest Weather Observations for Launceston

IDT60801

Issued at 3:01 pm EST Sunday 24 May 2015 (issued every 30 minutes, with the page automatically refreshed every 10 minutes)

About weather observations | Map of weather stations | Latest weather observations for TAS | Other Formats
Station Details ID: 091237 Name: LAUNCESTON (TI TREE BEND) Lat: -41.42 Lon: 147.12 Height: 5.0 m
Data from the previous 72 hours. | See also: Recent months at Launceston
Date/Time
EST
Temp
°C
App
Temp
°C
Dew
Point
Rel
Hum
%
Delta-T
°C
Wind Press
QNH
hPa
Press
MSL
hPa
Rain
since 9 am
mm
Dir
 
Spd
km/h
Gust
km/h
Spd
kts
Gust
kts
24/03:00pm 11.9 10.6 6.2 68 2.7 NNW 2 4 1 2 - - 0.0
24/02:30pm 10.8 9.1 5.8 71 2.3 N 4 7 2 4 - - 0.0
24/02:00pm 10.5 8.2 5.9 73 2.1 N 7 9 4 5 - - 0.0
24/01:30pm 11.0 9.1 4.9 66 2.8 N 4 6 2 3 - - 0.0
24/01:00pm 10.4 9.2 4.5 67 2.6 CALM 0 0 0 0 - - 0.0
24/12:30pm 8.6 6.3 3.0 68 2.4 ESE 4 6 2 3 - - 0.0
24/12:00pm 8.5 6.7 3.6 71 2.1 NE 2 4 1 2 - - 0.0
24/11:30am 6.9 5.4 3.0 76 1.6 CALM 0 4 0 2 - - 0.0
24/11:00am 5.7 3.8 2.7 81 1.2 E 2 4 1 2 - - 0.0
24/10:30am 3.9 2.2 2.1 88 0.7 CALM 0 0 0 0 - - 0.0
24/10:00am 2.9 0.8 1.4 90 0.6 E 2 4 1 2 - - 0.0
24/09:30am 2.0 0.2 1.3 95 0.3 CALM 0 0 0 0 - - 0.0
24/09:00am 0.3 -2.1 -0.3 96 0.2 ESE 2 4 1 2 - - 0.2
24/08:30am -0.4 -3.3 -0.8 97 0.1 E 4 6 2 3 - - 0.2
24/08:00am -0.9 -3.4 -1.2 98 0.1 E 2 4 1 2 - - 0.2
24/07:30am -1.8 -4.5 -2.2 97 0.1 ESE 2 2 1 1 - - 0.2
24/07:00am -1.5 -4.5 -1.8 98 0.0 E 4 6 2 3 - - 0.2
24/06:30am -1.6 -4.2 -1.9 98 0.0 ESE 2 4 1 2 - - 0.2
24/06:00am -1.4 -4.4 -1.7 98 0.0 ESE 4 4 2 2 - - 0.2
24/05:30am -1.1 -3.3 -1.4 98 0.1 CALM 0 0 0 0 - - 0.2
24/05:00am -1.6 -4.2 -2.0 97 0.1 S 2 2 1 1 - - 0.2
24/04:30am -0.9 -3.8 -1.3 97 0.1 E 4 6 2 3 - - 0.2
24/04:00am -1.0 -3.2 -1.4 97 0.1 CALM 0 2 0 1 - - 0.2
24/03:30am -0.8 -3.7 -1.2 97 0.1 SE 4 6 2 3 - - 0.2
24/03:00am -0.3 -2.8 -0.7 97 0.1 NE 2 4 1 2 - - 0.2
24/02:30am -0.4 -2.9 -0.8 97 0.1 S 2 2 1 1 - - 0.2
24/02:00am 0.3 -2.5 -0.1 97 0.1 ENE 4 4 2 2 - - 0.2
24/01:30am 0.4 -1.6 0.0 97 0.1 CALM 0 2 0 1 - - 0.2
24/01:00am 0.5 -1.5 -0.1 96 0.2 CALM 0 0 0 0 - - 0.2
24/12:30am 0.0 -2.5 -0.8 94 0.3 ESE 2 6 1 3 - - 0.2
24/12:00am 0.7 -1.7 -0.2 94 0.3 ESE 2 4 1 2 - - 0.2
 
Date/Time
EST
Temp
°C
App
Temp
°C
Dew
Point
Rel
Hum
%
Delta-T
°C
Wind Press
QNH
hPa
Press
MSL
hPa
Rain
since 9 am
mm
Dir
 
Spd
km/h
Gust
km/h
Spd
kts
Gust
kts
23/11:30pm 1.5 -0.4 0.6 94 0.3 CALM 0 2 0 1 - - 0.2
23/11:00pm 2.0 -1.1 1.3 95 0.3 E 7 11 4 6 - - 0.2
23/10:30pm 1.8 0.0 1.1 95 0.3 CALM 0 0 0 0 - - 0.2
23/10:00pm 2.0 -0.6 1.1 94 0.3 ESE 4 6 2 3 - - 0.2
23/09:30pm 2.1 0.3 1.1 93 0.4 CALM 0 0 0 0 - - 0.2
23/09:00pm 2.6 0.9 1.6 93 0.4 CALM 0 0 0 0 - - 0.2
23/08:30pm 3.2 1.5 2.0 92 0.5 CALM 0 0 0 0 - - 0.2
23/08:00pm 3.9 2.3 2.6 91 0.5 CALM 0 0 0 0 - - 0.2
23/07:30pm 4.4 2.1 2.8 89 0.6 ENE 4 6 2 3 - - 0.2
23/07:00pm 5.1 2.9 3.1 87 0.8 SSE 4 6 2 3 - - 0.2
23/06:30pm 5.4 4.0 3.6 88 0.8 CALM 0 0 0 0 - - 0.2
23/06:00pm 7.0 5.0 4.5 84 1.1 NW 4 6 2 3 - - 0.2
23/05:30pm 8.0 6.5 4.9 81 1.4 NW 2 4 1 2 - - 0.2
23/05:00pm 9.0 6.3 2.8 65 2.6 NNW 6 6 3 3 - - 0.2
23/04:30pm 12.5 10.3 1.2 46 4.8 WNW 2 4 1 2 - - 0.2
23/04:00pm 13.1 10.6 1.5 45 5.0 NW 4 6 2 3 - - 0.2
23/03:30pm 13.7 11.2 1.4 43 5.3 N 4 4 2 2 - - 0.2
23/03:00pm 14.4 12.5 0.3 38 6.0 CALM 0 2 0 1 - - 0.2
23/02:30pm 14.0 11.8 1.0 41 5.6 W 2 4 1 2 - - 0.2
23/02:00pm 12.6 10.0 1.0 45 4.9 SSW 4 6 2 3 - - 0.2
23/01:30pm 12.2 9.8 2.4 51 4.2 E 4 9 2 5 - - 0.2
23/01:00pm 11.3 8.9 4.3 62 3.1 E 6 9 3 5 - - 0.2
23/12:30pm 10.2 8.1 3.7 64 2.8 ESE 4 7 2 4 - - 0.0
23/12:00pm 9.1 7.2 3.1 66 2.6 ESE 2 7 1 4 - - 0.0
23/11:30am 7.9 6.0 2.6 69 2.2 E 2 6 1 3 - - 0.0
23/11:00am 7.1 4.8 2.8 74 1.8 ENE 4 4 2 2 - - 0.0
23/10:30am 5.9 4.4 3.1 82 1.2 CALM 0 0 0 0 - - 0.0
23/10:00am 4.5 2.9 2.2 85 0.9 CALM 0 2 0 1 - - 0.0
23/09:30am 2.5 0.7 1.5 93 0.4 CALM 0 0 0 0 - - 0.0
23/09:00am 0.9 -1.8 0.2 95 0.3 ESE 4 6 2 3 - - 0.0
23/08:30am -0.3 -3.2 -0.9 96 0.2 E 4 6 2 3 - - 0.0
23/08:00am -1.0 -4.3 -1.4 97 0.1 E 6 9 3 5 - - 0.0
23/07:30am -1.7 -4.4 -2.1 97 0.1 E 2 4 1 2 - - 0.0
23/07:00am -1.3 -4.3 -1.6 98 0.0 E 4 4 2 2 - - 0.0
23/06:30am -1.4 -4.0 -1.8 97 0.1 E 2 4 1 2 - - 0.0
23/06:00am -1.4 -3.6 -1.8 97 0.1 CALM 0 0 0 0 - - 0.0
23/05:30am -1.5 -3.7 -1.9 97 0.1 CALM 0 0 0 0 - - 0.0
23/05:00am -0.8 -3.7 -1.2 97 0.1 NE 4 6 2 3 - - 0.0
23/04:30am -0.8 -3.0 -1.2 97 0.1 CALM 0 2 0 1 - - 0.0
23/04:00am -0.8 -3.7 -1.2 97 0.1 ESE 4 6 2 3 - - 0.0
23/03:30am -0.4 -2.9 -0.8 97 0.1 E 2 2 1 1 - - 0.0
23/03:00am 0.1 -1.9 -0.3 97 0.1 CALM 0 4 0 2 - - 0.0
23/02:30am -0.3 -2.8 -0.7 97 0.1 ESE 2 4 1 2 - - 0.0
23/02:00am 0.2 -3.0 -0.2 97 0.1 E 6 6 3 3 - - 0.0
23/01:30am 0.5 -1.5 0.1 97 0.1 CALM 0 0 0 0 - - 0.0
23/01:00am 0.2 -1.8 -0.4 96 0.2 CALM 0 0 0 0 - - 0.0
23/12:30am 1.0 -0.9 0.4 96 0.2 CALM 0 2 0 1 - - 0.0
23/12:00am 1.1 -0.8 0.5 96 0.2 CALM 0 0 0 0 - - 0.0
 
Date/Time
EST
Temp
°C
App
Temp
°C
Dew
Point
Rel
Hum
%
Delta-T
°C
Wind Press
QNH
hPa
Press
MSL
hPa
Rain
since 9 am
mm
Dir
 
Spd
km/h
Gust
km/h
Spd
kts
Gust
kts
22/11:30pm 1.2 -0.7 0.5 95 0.3 CALM 0 0 0 0 - - 0.0
22/11:00pm 1.5 -1.2 0.6 94 0.3 ESE 4 6 2 3 - - 0.0
22/10:30pm 2.2 0.0 1.3 94 0.3 E 2 6 1 3 - - 0.0
22/10:00pm 2.6 0.1 1.7 94 0.3 E 4 6 2 3 - - 0.0
22/09:30pm 2.9 1.2 2.0 94 0.4 CALM 0 0 0 0 - - 0.0
22/09:00pm 3.0 1.3 2.0 93 0.4 CALM 0 2 0 1 - - 0.0
22/08:30pm 3.6 1.6 2.4 92 0.5 E 2 6 1 3 - - 0.0
22/08:00pm 4.1 1.8 2.9 92 0.5 E 4 6 2 3 - - 0.0
22/07:30pm 4.4 2.9 3.2 92 0.5 CALM 0 0 0 0 - - 0.0
22/07:00pm 5.0 3.6 3.7 91 0.5 CALM 0 0 0 0 - - 0.0
22/06:30pm 6.5 4.6 4.8 89 0.7 NNW 4 4 2 2 - - 0.0
22/06:00pm 6.5 4.4 4.0 84 1.1 NW 4 6 2 3 - - 0.0
22/05:30pm 8.1 6.9 4.5 78 1.6 CALM 0 0 0 0 - - 0.0
22/05:00pm 9.4 7.6 3.6 67 2.5 NW 2 4 1 2 - - 0.0
22/04:30pm 11.8 9.6 3.3 56 3.7 NW 4 6 2 3 - - 0.0
22/04:00pm 12.8 10.9 2.9 51 4.4 NNE 2 6 1 3 - - 0.0
22/03:30pm 13.0 10.3 2.8 50 4.5 ENE 6 9 3 5 - - 0.0
22/03:00pm 12.8 10.3 3.5 53 4.2 ESE 6 9 3 5 - - 0.0
22/02:30pm 12.9 10.1 3.3 52 4.3 E 7 11 4 6 - - 0.0
22/02:00pm 13.2 11.2 2.4 48 4.7 E 2 7 1 4 - - 0.0
22/01:30pm 12.8 10.5 2.6 50 4.5 ESE 4 7 2 4 - - 0.0
22/01:00pm 11.8 8.2 2.8 54 3.9 SE 11 17 6 9 - - 0.0
22/12:30pm 11.4 7.8 2.7 55 3.8 SE 11 17 6 9 - - 0.0
22/12:00pm 11.4 8.4 3.9 60 3.3 ESE 9 13 5 7 - - 0.0
22/11:30am 10.4 6.8 2.7 59 3.3 SE 11 15 6 8 - - 0.0
22/11:00am 10.2 7.6 3.3 62 3.0 ENE 6 9 3 5 - - 0.0
22/10:30am 9.3 7.6 4.1 70 2.3 ESE 2 6 1 3 - - 0.0
22/10:00am 7.2 5.0 3.4 77 1.6 SSE 4 6 2 3 - - 0.0
22/09:30am 5.7 3.4 2.9 82 1.2 SE 4 6 2 3 - - 0.0
22/09:00am 4.2 1.5 2.4 88 0.7 ENE 6 9 3 5 - - 0.2
22/08:30am 2.8 0.0 1.8 93 0.4 E 6 7 3 4 - - 0.2
22/08:00am 1.4 -0.8 0.8 96 0.2 SSW 2 2 1 1 - - 0.0
22/07:30am 0.9 -2.4 0.3 96 0.2 E 7 9 4 5 - - 0.0
22/07:00am 1.3 -1.7 0.7 96 0.2 E 6 9 3 5 - - 0.0
22/06:30am 1.4 -1.6 1.0 97 0.1 SE 6 9 3 5 - - 0.0
22/06:00am 1.1 -1.2 0.5 96 0.2 E 2 6 1 3 - - 0.0
22/05:30am 0.7 -1.3 0.0 95 0.3 CALM 0 2 0 1 - - 0.0
22/05:00am 1.4 -0.5 0.7 95 0.3 CALM 0 0 0 0 - - 0.0
22/04:30am 1.5 -0.7 0.8 95 0.3 S 2 2 1 1 - - 0.0
22/04:00am 2.1 -0.5 1.2 94 0.3 ENE 4 6 2 3 - - 0.0
22/03:30am 2.2 0.0 1.3 94 0.3 E 2 6 1 3 - - 0.0
22/03:00am 2.4 0.6 1.4 93 0.4 CALM 0 0 0 0 - - 0.0
22/02:30am 3.0 1.3 1.8 92 0.5 CALM 0 0 0 0 - - 0.0
22/02:00am 2.9 0.3 1.1 88 0.7 E 4 6 2 3 - - 0.0
22/01:30am 3.9 1.8 1.9 87 0.8 E 2 4 1 2 - - 0.0
22/01:00am 4.3 1.5 2.2 86 0.8 ESE 6 6 3 3 - - 0.0
22/12:30am 4.7 2.7 2.2 84 1.0 E 2 4 1 2 - - 0.0
22/12:00am 5.3 2.5 2.0 79 1.3 E 6 9 3 5 - - 0.0
 
Date/Time
EST
Temp
°C
App
Temp
°C
Dew
Point
Rel
Hum
%
Delta-T
°C
Wind Press
QNH
hPa
Press
MSL
hPa
Rain
since 9 am
mm
Dir
 
Spd
km/h
Gust
km/h
Spd
kts
Gust
kts
21/11:30pm 6.1 3.4 2.4 77 1.5 ESE 6 7 3 4 - - 0.0
21/11:00pm 6.1 3.3 2.2 76 1.6 E 6 7 3 4 - - 0.0
21/10:30pm 6.8 4.5 2.7 75 1.7 ESE 4 6 2 3 - - 0.0
21/10:00pm 7.7 5.4 2.8 71 2.1 SE 4 9 2 5 - - 0.0
21/09:30pm 8.4 5.7 2.8 68 2.4 SE 6 9 3 5 - - 0.0
21/09:00pm 7.8 5.2 3.3 73 1.9 ESE 6 6 3 3 - - 0.0
21/08:30pm 7.8 5.0 3.3 73 1.9 ESE 7 9 4 5 - - 0.0
21/08:00pm 7.3 4.7 3.0 74 1.8 ESE 6 7 3 4 - - 0.0
21/07:30pm 7.7 5.5 3.2 73 1.9 SE 4 7 2 4 - - 0.0
21/07:00pm 8.2 5.9 2.9 69 2.2 ESE 4 7 2 4 - - 0.0
21/06:30pm 8.8 6.2 3.2 68 2.4 SE 6 11 3 6 - - 0.0
21/06:00pm 9.5 6.3 3.3 65 2.7 SSE 9 15 5 8 - - 0.0
21/05:30pm 10.0 6.1 3.3 63 2.9 SSE 13 20 7 11 - - 0.0
21/05:00pm 10.7 6.4 3.3 60 3.2 SSE 15 22 8 12 - - 0.0
21/04:30pm 11.4 6.4 3.4 58 3.5 SSE 19 26 10 14 - - 0.0
21/04:00pm 12.2 8.0 3.7 56 3.8 SSE 15 22 8 12 - - 0.0
21/03:30pm 12.7 7.7 3.4 53 4.1 SSE 19 28 10 15 - - 0.0

Other Formats:

Comma delimited format used in spreadsheet applications
http://www.bom.gov.au/fwo/IDT60801/IDT60801.94969.axf

JavaScript Object Notation format (JSON) in row-major order
http://www.bom.gov.au/fwo/IDT60801/IDT60801.94969.json